Briefing drone pour Cran-gevrier

Rechercher une autre localisation

Conditions de vol :


Nous sommes le : Dimanche 19 septembre 2021
Il est 02:31 UTC (04:31 LT)

Lever de soleil : 04:52 UTC (06:52 LT)
Coucher de soleil : 18:06 UTC (20:06 LT)

Météo

L'essentiel des conditions de vol

VIGILANCE MÉTÉO FRANCE - Haute-Savoie (74)
Vigilance Jaune : Orages
CARTE TEMSI
CARTES DES FRONTS
METAR de LFLP
LFLP 190200Z AUTO 22007KT 9999 -RA FEW048/// OVC064/// ///CB 14/12 Q1015

Date d'émission: 19/09/2021
Heure d'émission: 02:00 UTC
Vent: 220° pour 7 KT (13 km/h)
Visibilité horizontale: > 10 km
Plafond :
- Peu de nuages à 4800ft (1463m)
- Couvert à 6400ft (1951m)
Température: 14 °C
Point de rosée: 12 °C
Humidité: 88%
Pression (QNH): 1015 hPa
Conditions: Faible pluie
TAF de LFLP
AMD LFLP 181900Z 1819/1915 CNL

Conditions prévues :

Heure d'émission : Bulletin éffectué le 18 à 19:00 UTC
Prévision : Valide du 18 a 19:00 UTC au 19 a 15:00 UTC
Nuages : à 0ft (0 m)
WEBCAM POUR CRAN-GEVRIER

Réglementation

Voler en sécurité

CARTES AERONAUTIQUE 1/500.000
CARTES VAC (LFLP)
SUP AIP




Chargement des AIP...
NOTAM (CRAN-GEVRIER + Terrain à proximité / FIR )




Chargement des NOTAMS...
CONTACT PREFECTURE 74


Avertissement : Les données mises à disposition sont indicatives. Oxygène Drone ne pourra être tenu responsable de dégâts causés aux biens et aux personnes.